Time;durP1;ratioP1;P1;durP2;ratioP2;P2;SDS_P1;SDS_P2;PMS_P1;PMS_P2;Temp;Humidity;BMP_temperature;BMP_pressure;BME280_temperature;BME280_humidity;BME280_pressure;Samples;Min_cycle;Max_cycle;Signal;HPM_P1;HPM_P2
2024/01/08 00:01:30;;;;;;;0.85;0.32;;;8.00;95.20;;;;;;5054975;28;20037;-70
2024/01/08 00:03:56;;;;;;;3.08;1.05;;;8.00;95.30;;;;;;5070322;28;20114;-70
2024/01/08 00:06:21;;;;;;;4.15;1.33;;;7.90;95.80;;;;;;5055134;28;20138;-71
2024/01/08 00:08:47;;;;;;;2.05;1.00;;;7.90;95.30;;;;;;5056753;28;20040;-69
2024/01/08 00:11:13;;;;;;;1.60;0.57;;;7.80;96.00;;;;;;5057092;28;20044;-70
2024/01/08 00:13:38;;;;;;;1.23;0.40;;;7.80;96.30;;;;;;5060999;28;20090;-70
2024/01/08 00:16:04;;;;;;;2.92;0.65;;;7.80;96.10;;;;;;5054829;28;21087;-69
2024/01/08 00:18:30;;;;;;;1.73;0.80;;;7.80;95.90;;;;;;5062468;28;20102;-70
2024/01/08 00:20:56;;;;;;;3.83;1.90;;;7.90;95.50;;;;;;5057603;28;20044;-70
2024/01/08 00:23:23;;;;;;;3.03;1.02;;;7.90;95.80;;;;;;5058363;28;20397;-69
2024/01/08 00:25:49;;;;;;;1.05;0.63;;;7.90;96.00;;;;;;5065507;28;20093;-70
2024/01/08 00:28:15;;;;;;;1.90;0.82;;;7.90;96.20;;;;;;5051128;28;20418;-69
2024/01/08 00:30:40;;;;;;;1.05;0.47;;;7.90;96.20;;;;;;5057185;28;20032;-70
2024/01/08 00:33:06;;;;;;;0.75;0.50;;;7.90;95.80;;;;;;5057597;28;20560;-70
2024/01/08 00:35:32;;;;;;;3.42;1.30;;;8.00;95.70;;;;;;5050604;28;20033;-69
2024/01/08 00:37:57;;;;;;;1.58;0.68;;;7.70;96.50;;;;;;5057830;28;20044;-70
2024/01/08 00:40:23;;;;;;;1.13;0.43;;;7.70;96.10;;;;;;5056745;28;20483;-69
2024/01/08 00:42:49;;;;;;;0.13;0.08;;;7.90;95.10;;;;;;5067148;28;20126;-69
2024/01/08 00:45:14;;;;;;;1.55;0.45;;;7.90;95.10;;;;;;5061241;28;20470;-70
2024/01/08 00:47:40;;;;;;;1.88;0.57;;;7.80;95.20;;;;;;5054617;28;20444;-69
2024/01/08 00:50:09;;;;;;;0.95;0.50;;;8.00;94.90;;;;;;5062906;28;20028;-69
2024/01/08 00:52:36;;;;;;;2.03;0.82;;;8.00;94.60;;;;;;5050018;28;21097;-70
2024/01/08 00:55:04;;;;;;;0.95;0.38;;;7.90;95.10;;;;;;5059787;28;20031;-70
2024/01/08 00:57:31;;;;;;;0.40;0.25;;;7.90;94.70;;;;;;5052565;28;20356;-70
2024/01/08 00:59:57;;;;;;;4.43;1.33;;;8.00;94.70;;;;;;5055440;28;20051;-69
2024/01/08 01:02:22;;;;;;;1.38;0.45;;;8.00;95.00;;;;;;5055762;28;20374;-69
2024/01/08 01:04:48;;;;;;;1.00;0.40;;;7.90;94.20;;;;;;5053651;28;20105;-69
2024/01/08 01:07:14;;;;;;;2.20;1.00;;;8.10;93.70;;;;;;5056194;28;20086;-70
2024/01/08 01:09:39;;;;;;;0.65;0.43;;;8.00;94.70;;;;;;5052544;28;20158;-69
2024/01/08 01:12:05;;;;;;;2.92;0.40;;;7.90;94.60;;;;;;5055981;28;20575;-69
2024/01/08 01:14:31;;;;;;;0.65;0.40;;;7.90;94.30;;;;;;5049537;28;20024;-70
2024/01/08 01:16:57;;;;;;;1.10;0.47;;;7.90;94.30;;;;;;5055346;28;20445;-70
2024/01/08 01:19:23;;;;;;;0.50;0.30;;;8.10;92.90;;;;;;5057130;28;20033;-70
2024/01/08 01:21:49;;;;;;;2.20;0.40;;;8.20;92.40;;;;;;5061190;28;20398;-69
2024/01/08 01:24:14;;;;;;;0.90;0.40;;;8.30;92.70;;;;;;5055802;28;20322;-69
2024/01/08 01:26:40;;;;;;;0.80;0.30;;;8.20;92.40;;;;;;5053215;28;20041;-69
2024/01/08 01:29:06;;;;;;;1.02;0.50;;;8.20;92.60;;;;;;5048737;28;20041;-69
2024/01/08 01:31:33;;;;;;;1.15;0.50;;;8.10;92.70;;;;;;5049206;28;20116;-69
2024/01/08 01:34:03;;;;;;;0.93;0.25;;;8.10;92.40;;;;;;5050279;28;20040;-70
2024/01/08 01:36:29;;;;;;;0.28;0.10;;;8.20;92.30;;;;;;5057202;28;20063;-69
2024/01/08 01:38:55;;;;;;;0.38;0.22;;;8.20;92.10;;;;;;5064820;28;20107;-69
2024/01/08 01:41:21;;;;;;;0.38;0.08;;;8.30;91.70;;;;;;5063841;28;20051;-69
2024/01/08 01:43:46;;;;;;;1.80;0.40;;;8.30;92.00;;;;;;5065254;28;20032;-69
2024/01/08 01:46:51;;;;;;;0.20;0.10;;;8.30;91.60;;;;;;5057592;28;20828;-69
2024/01/08 01:49:18;;;;;;;1.38;0.40;;;8.30;92.10;;;;;;5048771;28;20060;-70
2024/01/08 01:51:45;;;;;;;1.80;0.77;;;8.20;92.10;;;;;;5057176;28;20040;-70
2024/01/08 01:54:13;;;;;;;3.42;1.40;;;8.10;92.90;;;;;;5051183;28;20040;-70
2024/01/08 01:56:41;;;;;;;1.05;0.57;;;8.10;92.70;;;;;;5063553;28;20035;-72
2024/01/08 01:59:08;;;;;;;1.40;0.52;;;8.10;92.20;;;;;;5063851;28;20039;-72
2024/01/08 02:01:35;;;;;;;0.70;0.30;;;8.10;93.10;;;;;;5062699;28;20062;-72
2024/01/08 02:04:02;;;;;;;0.70;0.30;;;8.10;92.70;;;;;;5050397;28;20135;-72
2024/01/08 02:06:29;;;;;;;1.35;0.25;;;8.10;92.90;;;;;;5052320;28;20036;-69
2024/01/08 02:08:55;;;;;;;0.60;0.28;;;8.10;92.00;;;;;;5057228;28;20039;-69
2024/01/08 02:11:21;;;;;;;0.75;0.30;;;8.10;92.40;;;;;;5052789;28;20056;-70
2024/01/08 02:13:50;;;;;;;0.75;0.40;;;8.10;92.90;;;;;;5065726;28;20046;-70
2024/01/08 02:16:17;;;;;;;0.13;0.10;;;8.10;93.10;;;;;;5063277;28;20040;-69
2024/01/08 02:18:43;;;;;;;0.30;0.20;;;7.90;92.90;;;;;;5073073;28;20043;-70
2024/01/08 02:21:09;;;;;;;0.47;0.28;;;7.90;94.30;;;;;;5072331;28;20032;-69
2024/01/08 02:23:35;;;;;;;0.45;0.28;;;7.80;94.10;;;;;;5062015;28;20051;-69
2024/01/08 02:26:01;;;;;;;0.93;0.38;;;7.80;93.70;;;;;;5060280;28;20033;-69
2024/01/08 02:28:26;;;;;;;2.65;0.63;;;7.80;94.10;;;;;;5070630;28;20570;-70
2024/01/08 02:30:52;;;;;;;1.65;0.35;;;7.70;94.50;;;;;;5063012;28;20362;-70
2024/01/08 02:33:18;;;;;;;0.63;0.25;;;7.80;94.30;;;;;;5062495;28;20032;-69
2024/01/08 02:35:43;;;;;;;0.63;0.30;;;7.70;94.00;;;;;;5060405;28;20025;-69
2024/01/08 02:38:09;;;;;;;1.17;0.35;;;7.70;95.30;;;;;;5062934;28;20127;-70
2024/01/08 02:40:35;;;;;;;0.50;0.25;;;7.60;94.50;;;;;;5074216;28;20063;-70
2024/01/08 02:43:00;;;;;;;0.60;0.20;;;7.60;93.60;;;;;;5058978;28;20040;-70
2024/01/08 02:45:26;;;;;;;1.08;0.32;;;7.80;92.50;;;;;;5066353;28;20135;-70
2024/01/08 02:47:52;;;;;;;0.85;0.30;;;8.00;92.30;;;;;;5059987;28;20032;-70
2024/01/08 02:50:17;;;;;;;0.65;0.30;;;7.90;93.20;;;;;;5064302;28;20097;-69
2024/01/08 02:52:44;;;;;;;0.30;0.10;;;7.90;92.80;;;;;;5068176;28;20461;-70
2024/01/08 02:55:10;;;;;;;0.32;0.20;;;7.90;93.10;;;;;;5075155;28;20020;-69
2024/01/08 02:57:36;;;;;;;0.30;0.20;;;7.90;93.00;;;;;;5063365;28;20125;-70
2024/01/08 03:00:04;;;;;;;0.55;0.28;;;8.00;92.20;;;;;;5059832;28;20785;-70
2024/01/08 03:02:30;;;;;;;0.90;0.30;;;7.90;92.90;;;;;;5062858;28;20082;-70
2024/01/08 03:04:57;;;;;;;0.40;0.30;;;8.00;92.30;;;;;;5072398;28;20407;-69
2024/01/08 03:07:22;;;;;;;0.20;0.10;;;8.00;92.30;;;;;;5057785;28;20179;-69
2024/01/08 03:09:49;;;;;;;0.30;0.15;;;8.00;92.80;;;;;;5063567;28;20040;-70
2024/01/08 03:12:14;;;;;;;0.80;0.28;;;7.90;92.30;;;;;;5059944;28;20028;-70
2024/01/08 03:14:41;;;;;;;0.63;0.20;;;8.00;92.20;;;;;;5070095;28;20049;-69
2024/01/08 03:17:06;;;;;;;0.70;0.25;;;7.90;93.20;;;;;;5065169;28;20114;-71
2024/01/08 03:19:32;;;;;;;0.45;0.20;;;7.90;93.30;;;;;;5065082;28;20032;-70
2024/01/08 03:22:00;;;;;;;1.00;0.32;;;7.80;93.60;;;;;;5063615;28;20040;-70
2024/01/08 03:24:25;;;;;;;0.50;0.30;;;7.70;93.60;;;;;;5060923;28;20036;-70
2024/01/08 03:26:51;;;;;;;0.43;0.20;;;7.80;92.90;;;;;;5064550;28;20038;-70
2024/01/08 03:29:16;;;;;;;1.10;0.13;;;7.80;93.20;;;;;;5069999;28;20034;-69
2024/01/08 03:31:45;;;;;;;1.05;0.40;;;7.80;93.00;;;;;;5056950;28;20171;-70
2024/01/08 03:34:12;;;;;;;2.65;1.17;;;7.90;93.30;;;;;;5063593;28;20055;-70
2024/01/08 03:36:38;;;;;;;0.60;0.25;;;7.80;93.80;;;;;;5064279;28;20032;-70
2024/01/08 03:39:03;;;;;;;2.15;1.42;;;7.80;93.90;;;;;;5062531;28;20408;-70
2024/01/08 03:41:29;;;;;;;0.85;0.35;;;7.70;93.70;;;;;;5069164;28;20055;-69
2024/01/08 03:43:55;;;;;;;1.35;0.30;;;7.60;94.60;;;;;;5062392;28;20134;-69
2024/01/08 03:46:20;;;;;;;0.75;0.40;;;7.70;93.10;;;;;;5061220;28;20040;-69
2024/01/08 03:48:46;;;;;;;3.50;0.70;;;7.70;93.20;;;;;;5057242;28;20394;-70
2024/01/08 03:51:12;;;;;;;0.90;0.40;;;7.70;93.50;;;;;;5056694;28;20033;-69
2024/01/08 03:53:38;;;;;;;0.70;0.30;;;7.70;94.00;;;;;;5064968;28;20093;-70
2024/01/08 03:56:04;;;;;;;0.30;0.20;;;7.50;93.70;;;;;;5058404;28;20130;-70
2024/01/08 03:58:30;;;;;;;0.47;0.20;;;7.70;92.90;;;;;;5056618;28;20048;-70
2024/01/08 04:00:55;;;;;;;0.47;0.20;;;7.80;93.30;;;;;;5063465;28;20042;-70
2024/01/08 04:03:22;;;;;;;1.00;0.20;;;7.70;93.50;;;;;;5059505;28;20037;-70
2024/01/08 04:05:48;;;;;;;1.38;0.20;;;7.70;93.80;;;;;;5057698;28;20021;-70
2024/01/08 04:08:13;;;;;;;0.93;0.30;;;7.60;93.80;;;;;;5054275;28;20051;-70
2024/01/08 04:10:39;;;;;;;0.10;0.10;;;7.60;93.80;;;;;;5065306;28;20055;-70
2024/01/08 04:13:05;;;;;;;0.30;0.20;;;7.60;93.90;;;;;;5052343;28;20613;-70
2024/01/08 04:15:31;;;;;;;0.75;0.20;;;7.60;93.70;;;;;;5054156;28;20032;-69
2024/01/08 04:17:57;;;;;;;0.70;0.50;;;7.60;94.70;;;;;;5060513;28;20607;-70
2024/01/08 04:20:22;;;;;;;0.93;0.30;;;7.60;93.90;;;;;;5049823;28;20564;-69
2024/01/08 04:22:50;;;;;;;1.02;0.40;;;7.60;93.40;;;;;;5056589;28;20478;-70
2024/01/08 04:25:16;;;;;;;0.52;0.28;;;7.60;93.60;;;;;;5048917;28;20090;-70
2024/01/08 04:27:45;;;;;;;0.43;0.20;;;7.60;94.30;;;;;;5059534;28;20040;-70
2024/01/08 04:30:11;;;;;;;0.90;0.40;;;7.60;93.80;;;;;;5055991;28;20035;-70
2024/01/08 04:32:37;;;;;;;1.17;0.47;;;7.60;93.30;;;;;;5049517;28;20036;-70
2024/01/08 04:35:03;;;;;;;0.40;0.28;;;7.60;93.70;;;;;;5062013;28;20489;-71
2024/01/08 04:37:29;;;;;;;0.63;0.40;;;7.60;93.80;;;;;;5052579;28;20386;-70
2024/01/08 04:39:55;;;;;;;0.28;0.20;;;7.60;94.30;;;;;;5052841;28;20028;-70
2024/01/08 04:42:21;;;;;;;1.23;0.43;;;7.50;93.80;;;;;;5053999;28;20376;-71
2024/01/08 04:44:47;;;;;;;0.73;0.22;;;7.60;93.00;;;;;;5052370;28;20045;-70
2024/01/08 04:47:13;;;;;;;1.08;0.40;;;7.70;93.20;;;;;;5054121;28;20053;-70
2024/01/08 04:49:40;;;;;;;2.38;0.28;;;7.60;93.40;;;;;;5064434;28;20040;-70
2024/01/08 04:52:06;;;;;;;0.25;0.10;;;7.60;93.70;;;;;;5054172;28;20036;-69
2024/01/08 04:54:31;;;;;;;1.85;0.30;;;7.60;93.50;;;;;;5062538;28;20049;-70
2024/01/08 04:56:57;;;;;;;0.40;0.20;;;7.60;93.10;;;;;;5050970;28;20074;-70
2024/01/08 04:59:23;;;;;;;1.98;0.47;;;7.60;94.10;;;;;;5051902;28;20114;-70
2024/01/08 05:01:52;;;;;;;0.55;0.30;;;7.50;94.00;;;;;;5053753;28;20039;-70
2024/01/08 05:04:17;;;;;;;0.35;0.20;;;7.40;94.00;;;;;;5059752;28;20529;-70
2024/01/08 05:06:46;;;;;;;0.38;0.25;;;7.50;93.30;;;;;;5050216;28;20036;-71
2024/01/08 05:09:13;;;;;;;0.32;0.20;;;7.60;93.30;;;;;;5059537;28;20024;-70
2024/01/08 05:11:39;;;;;;;0.73;0.40;;;7.60;93.70;;;;;;5052858;28;20074;-70
2024/01/08 05:14:05;;;;;;;0.60;0.30;;;7.40;94.00;;;;;;5047433;28;20039;-70
2024/01/08 05:16:30;;;;;;;1.27;0.40;;;7.60;93.30;;;;;;5046766;28;20032;-71
2024/01/08 05:18:56;;;;;;;0.85;0.32;;;7.60;93.20;;;;;;5050395;28;20044;-70
2024/01/08 05:21:22;;;;;;;0.82;0.20;;;7.60;94.20;;;;;;5047356;28;20028;-70
2024/01/08 05:23:48;;;;;;;0.77;0.30;;;7.50;94.40;;;;;;5050860;28;20083;-70
2024/01/08 05:26:13;;;;;;;0.70;0.25;;;7.50;94.50;;;;;;5062149;28;20056;-71
2024/01/08 05:28:39;;;;;;;2.47;0.30;;;7.40;94.40;;;;;;5054400;28;20056;-70
2024/01/08 05:31:05;;;;;;;0.88;0.45;;;7.50;93.60;;;;;;5051591;28;20036;-70
2024/01/08 05:33:31;;;;;;;0.88;0.38;;;7.50;93.30;;;;;;5054052;28;20487;-70
2024/01/08 05:35:56;;;;;;;1.00;0.30;;;7.50;93.50;;;;;;5052548;28;20039;-70
2024/01/08 05:38:24;;;;;;;1.23;0.22;;;7.50;93.70;;;;;;5061637;28;20031;-72
2024/01/08 05:40:50;;;;;;;0.30;0.17;;;7.50;93.60;;;;;;5053977;28;20086;-71
2024/01/08 05:43:16;;;;;;;2.97;0.40;;;7.50;94.00;;;;;;5055983;28;20041;-70
2024/01/08 05:45:41;;;;;;;1.67;0.63;;;7.40;93.50;;;;;;5051712;28;20163;-70
2024/01/08 05:48:07;;;;;;;0.45;0.20;;;7.50;93.40;;;;;;5057729;28;20110;-71
2024/01/08 05:50:33;;;;;;;4.20;3.53;;;7.50;93.70;;;;;;5053469;28;23794;-70
2024/01/08 05:53:00;;;;;;;4.72;2.63;;;7.40;94.00;;;;;;5064623;28;20390;-70
2024/01/08 05:55:26;;;;;;;2.78;1.45;;;7.50;93.60;;;;;;5055812;28;20036;-70
2024/01/08 05:57:52;;;;;;;2.50;1.08;;;7.50;93.70;;;;;;5059581;28;20054;-70
2024/01/08 06:00:18;;;;;;;2.55;1.23;;;7.50;93.30;;;;;;5056247;28;20107;-70
2024/01/08 06:02:44;;;;;;;1.48;0.88;;;7.60;93.60;;;;;;5053277;28;20491;-71
2024/01/08 06:05:10;;;;;;;0.77;0.55;;;7.40;94.20;;;;;;5059322;28;20032;-71
2024/01/08 06:07:36;;;;;;;0.90;0.40;;;7.30;95.40;;;;;;5056849;28;20043;-70
2024/01/08 06:10:02;;;;;;;1.40;0.35;;;7.20;94.40;;;;;;5062496;28;20042;-71
2024/01/08 06:12:28;;;;;;;1.27;0.40;;;7.30;94.30;;;;;;5055087;28;20040;-70
2024/01/08 06:14:55;;;;;;;0.52;0.38;;;7.30;93.70;;;;;;5058435;28;20086;-70
2024/01/08 06:17:21;;;;;;;1.70;0.52;;;7.30;93.80;;;;;;5061460;28;20028;-70
2024/01/08 06:19:48;;;;;;;0.88;0.30;;;7.30;93.90;;;;;;5060515;28;20024;-76
2024/01/08 06:22:14;;;;;;;1.13;0.50;;;7.30;93.80;;;;;;5057457;28;20040;-71
2024/01/08 06:24:40;;;;;;;2.20;0.73;;;7.30;93.60;;;;;;5062243;28;20048;-70
2024/01/08 06:27:06;;;;;;;0.73;0.30;;;7.30;93.60;;;;;;5059155;28;20029;-71
2024/01/08 06:29:32;;;;;;;0.85;0.30;;;7.30;95.00;;;;;;5049999;28;20157;-71
2024/01/08 06:31:58;;;;;;;1.70;0.60;;;7.30;94.20;;;;;;5050733;28;20074;-71
2024/01/08 06:34:26;;;;;;;1.10;0.43;;;7.20;93.80;;;;;;5060638;28;20131;-70
2024/01/08 06:36:52;;;;;;;0.20;0.13;;;7.30;93.30;;;;;;5059264;28;20115;-70
2024/01/08 06:39:18;;;;;;;1.08;0.40;;;7.30;93.20;;;;;;5061318;28;20038;-70
2024/01/08 06:41:43;;;;;;;1.85;0.50;;;7.40;93.00;;;;;;5053425;28;20032;-71
2024/01/08 06:44:09;;;;;;;3.15;0.63;;;7.50;92.70;;;;;;5053862;28;20068;-71
2024/01/08 06:46:35;;;;;;;0.43;0.30;;;7.50;93.00;;;;;;5063654;28;20050;-71
2024/01/08 06:49:00;;;;;;;1.10;0.25;;;7.40;93.90;;;;;;5051958;28;20047;-70
2024/01/08 06:51:26;;;;;;;2.33;0.60;;;7.30;93.40;;;;;;5060577;28;20037;-70
2024/01/08 06:53:52;;;;;;;0.77;0.30;;;7.30;93.30;;;;;;5066168;28;20047;-71
2024/01/08 06:56:18;;;;;;;1.02;0.30;;;7.30;93.40;;;;;;5058187;28;20631;-71
2024/01/08 06:58:43;;;;;;;0.90;0.40;;;7.40;93.20;;;;;;5056724;28;20169;-70
2024/01/08 07:01:09;;;;;;;0.43;0.20;;;7.40;93.10;;;;;;5059689;28;20123;-71
2024/01/08 07:03:37;;;;;;;0.90;0.50;;;7.40;93.10;;;;;;5049395;28;20040;-71
2024/01/08 07:06:03;;;;;;;1.48;0.60;;;7.40;93.30;;;;;;5057002;28;20555;-71
2024/01/08 07:08:29;;;;;;;3.25;0.40;;;7.30;93.20;;;;;;5060782;28;21299;-71
2024/01/08 07:10:54;;;;;;;1.50;0.60;;;7.30;93.20;;;;;;5058575;28;20059;-71
2024/01/08 07:13:21;;;;;;;2.00;0.60;;;7.30;93.30;;;;;;5054774;28;20088;-71
2024/01/08 07:15:48;;;;;;;2.15;0.60;;;7.30;93.60;;;;;;5054654;28;20158;-71
2024/01/08 07:18:15;;;;;;;1.05;0.60;;;7.30;93.70;;;;;;5060254;28;20038;-71
2024/01/08 07:20:42;;;;;;;0.80;0.35;;;7.30;93.40;;;;;;5058463;28;20040;-70
2024/01/08 07:23:14;;;;;;;1.48;0.50;;;7.20;93.60;;;;;;5060890;28;20136;-71
2024/01/08 07:25:41;;;;;;;1.25;0.35;;;7.30;93.10;;;;;;5057225;28;20040;-71
2024/01/08 07:28:11;;;;;;;1.00;0.40;;;7.40;93.10;;;;;;5053346;28;20055;-71
2024/01/08 07:30:37;;;;;;;2.20;0.68;;;7.30;93.30;;;;;;5056904;28;20038;-71
2024/01/08 07:33:04;;;;;;;1.13;0.60;;;7.30;93.80;;;;;;5055344;28;20510;-71
2024/01/08 07:35:29;;;;;;;1.50;0.57;;;7.30;93.90;;;;;;5057204;28;20064;-71
2024/01/08 07:37:55;;;;;;;1.20;0.50;;;7.20;93.40;;;;;;5058200;28;20131;-71
2024/01/08 07:40:27;;;;;;;0.57;0.40;;;7.30;94.00;;;;;;5051335;28;20044;-71
2024/01/08 07:42:57;;;;;;;0.95;0.60;;;7.20;93.60;;;;;;5060607;28;20093;-72
2024/01/08 07:45:24;;;;;;;0.95;0.50;;;7.20;93.70;;;;;;5063770;28;20048;-71
2024/01/08 07:47:50;;;;;;;1.17;0.50;;;7.20;93.20;;;;;;5060211;28;20089;-70
2024/01/08 07:50:16;;;;;;;0.93;0.32;;;7.30;93.10;;;;;;5055952;28;20040;-70
2024/01/08 07:52:42;;;;;;;1.65;0.60;;;7.30;93.30;;;;;;5054044;28;20024;-70
2024/01/08 07:55:09;;;;;;;1.33;0.73;;;7.30;93.10;;;;;;5049202;28;20033;-71
2024/01/08 07:57:35;;;;;;;2.15;0.52;;;7.30;93.10;;;;;;5052918;28;20039;-71
2024/01/08 08:00:01;;;;;;;0.93;0.50;;;7.30;93.40;;;;;;5053698;28;20033;-70
2024/01/08 08:02:27;;;;;;;1.48;0.68;;;7.30;93.00;;;;;;5064271;28;20093;-68
2024/01/08 08:04:53;;;;;;;1.23;0.52;;;7.30;93.10;;;;;;5058054;28;20044;-69
2024/01/08 08:07:19;;;;;;;1.15;0.60;;;7.20;93.20;;;;;;5050930;28;21318;-68
2024/01/08 08:09:45;;;;;;;0.77;0.52;;;7.30;93.00;;;;;;5051912;28;20028;-68
2024/01/08 08:12:11;;;;;;;1.58;0.57;;;7.30;93.50;;;;;;5049586;28;20123;-71
2024/01/08 08:14:37;;;;;;;1.90;0.50;;;7.20;93.60;;;;;;5054320;28;20032;-69
2024/01/08 08:17:05;;;;;;;1.55;0.57;;;7.30;93.70;;;;;;5047684;28;20090;-69
2024/01/08 08:19:31;;;;;;;2.22;0.90;;;7.30;93.40;;;;;;5055204;28;20089;-68
2024/01/08 08:21:57;;;;;;;1.67;0.63;;;7.20;93.70;;;;;;5059748;28;20524;-69
2024/01/08 08:24:23;;;;;;;1.58;0.75;;;7.30;93.50;;;;;;5049573;28;20052;-71
2024/01/08 08:26:49;;;;;;;1.85;0.80;;;7.20;93.30;;;;;;5052447;28;20028;-71
2024/01/08 08:29:15;;;;;;;1.63;0.73;;;7.30;93.30;;;;;;5054074;28;20040;-71
2024/01/08 08:31:42;;;;;;;1.85;0.63;;;7.40;93.90;;;;;;5053967;28;20031;-69
2024/01/08 08:34:09;;;;;;;1.13;0.55;;;7.40;92.70;;;;;;5053840;28;20046;-68
2024/01/08 08:36:37;;;;;;;1.45;0.70;;;7.40;93.10;;;;;;5049982;28;20589;-69
2024/01/08 08:39:03;;;;;;;1.67;0.55;;;7.50;93.00;;;;;;5049486;28;20032;-70
2024/01/08 08:41:29;;;;;;;1.35;0.60;;;7.50;93.00;;;;;;5054223;28;20041;-68
2024/01/08 08:43:54;;;;;;;2.20;0.88;;;7.50;93.00;;;;;;5048073;28;20040;-69
2024/01/08 08:46:20;;;;;;;2.95;0.50;;;7.50;93.10;;;;;;5047714;28;20632;-68
2024/01/08 08:48:46;;;;;;;2.92;1.25;;;7.50;93.20;;;;;;5048704;28;20033;-69
2024/01/08 08:51:11;;;;;;;2.45;0.85;;;7.50;93.00;;;;;;5058561;28;20043;-69
2024/01/08 08:53:37;;;;;;;1.77;0.82;;;7.50;92.90;;;;;;5056450;28;20039;-68
2024/01/08 08:56:04;;;;;;;1.73;0.70;;;7.60;93.10;;;;;;5055474;28;20048;-69
2024/01/08 08:58:30;;;;;;;1.30;0.50;;;7.60;93.50;;;;;;5053426;28;20036;-70
2024/01/08 09:00:56;;;;;;;0.75;0.50;;;7.60;92.90;;;;;;5052977;28;20039;-71
2024/01/08 09:03:22;;;;;;;2.03;0.60;;;7.60;93.00;;;;;;5054747;28;20036;-71
2024/01/08 09:05:47;;;;;;;1.10;0.50;;;7.60;92.70;;;;;;5047970;28;20588;-69
2024/01/08 09:08:13;;;;;;;1.10;0.60;;;7.60;92.50;;;;;;5062172;28;20067;-69
2024/01/08 09:10:39;;;;;;;2.53;1.17;;;7.60;92.60;;;;;;5050222;28;20514;-69
2024/01/08 09:13:05;;;;;;;2.67;1.38;;;7.60;92.50;;;;;;5055695;28;20048;-69
2024/01/08 09:15:31;;;;;;;3.00;1.23;;;7.70;92.60;;;;;;5050663;28;20043;-68
2024/01/08 09:17:56;;;;;;;1.88;0.90;;;7.80;92.80;;;;;;5053356;28;20923;-69
2024/01/08 09:20:22;;;;;;;1.58;0.90;;;7.80;92.50;;;;;;5054187;28;20032;-69
2024/01/08 09:22:48;;;;;;;2.05;0.68;;;7.80;92.50;;;;;;5050301;28;20650;-68
2024/01/08 09:25:14;;;;;;;2.05;0.90;;;7.90;92.50;;;;;;5053956;28;20047;-68
2024/01/08 09:27:42;;;;;;;1.35;0.68;;;7.90;93.20;;;;;;5045243;28;20061;-69
2024/01/08 09:30:08;;;;;;;1.15;0.60;;;8.00;93.00;;;;;;5049534;28;20025;-68
2024/01/08 09:32:34;;;;;;;4.13;0.70;;;8.00;93.00;;;;;;5049382;28;20055;-68
2024/01/08 09:35:00;;;;;;;2.47;0.68;;;7.90;92.70;;;;;;5056785;28;20024;-68
2024/01/08 09:37:25;;;;;;;1.13;0.55;;;7.90;93.00;;;;;;5064465;28;20027;-69
2024/01/08 09:39:52;;;;;;;1.85;0.60;;;8.00;92.60;;;;;;5053916;28;20029;-68
2024/01/08 09:42:20;;;;;;;1.42;0.63;;;7.90;92.30;;;;;;5046341;28;20597;-69
2024/01/08 09:44:47;;;;;;;2.95;0.70;;;8.00;92.60;;;;;;5047990;28;20072;-69
2024/01/08 09:47:16;;;;;;;0.73;0.30;;;8.10;92.80;;;;;;5054450;28;20035;-69
2024/01/08 09:49:43;;;;;;;4.55;2.92;;;8.20;92.70;;;;;;5048541;28;20029;-68
2024/01/08 09:52:11;;;;;;;20.02;12.68;;;8.20;92.80;;;;;;5051806;28;20064;-69
2024/01/08 09:54:38;;;;;;;3.83;1.80;;;8.10;93.50;;;;;;5051332;28;20040;-69
2024/01/08 09:57:04;;;;;;;4.13;2.15;;;8.00;93.00;;;;;;5060115;28;21267;-68
2024/01/08 09:59:31;;;;;;;3.33;1.50;;;7.90;92.60;;;;;;5058311;28;20028;-69
2024/01/08 10:01:57;;;;;;;2.53;1.40;;;8.10;92.90;;;;;;5054381;28;20428;-69
2024/01/08 10:04:26;;;;;;;1.40;0.68;;;8.30;92.60;;;;;;5052593;28;20048;-69
2024/01/08 10:07:12;;;;;;;1.80;0.65;;;8.30;92.80;;;;;;5055016;28;20038;-69
2024/01/08 10:09:38;;;;;;;2.10;0.80;;;8.30;92.30;;;;;;5062287;28;20044;-70
2024/01/08 10:12:07;;;;;;;2.38;0.80;;;8.40;91.70;;;;;;5051390;28;20056;-70
2024/01/08 10:14:33;;;;;;;1.50;0.80;;;8.10;91.50;;;;;;5052254;28;20111;-68
2024/01/08 10:17:00;;;;;;;2.35;0.77;;;8.20;91.40;;;;;;5051107;28;20614;-68
2024/01/08 10:19:27;;;;;;;2.63;0.75;;;8.30;92.10;;;;;;5058815;28;20036;-69
2024/01/08 10:22:13;;;;;;;2.53;1.00;;;8.20;91.90;;;;;;5056218;28;20398;-69
2024/01/08 10:24:44;;;;;;;1.85;0.63;;;8.40;92.30;;;;;;5051557;28;20048;-69
2024/01/08 10:27:11;;;;;;;1.95;0.80;;;8.40;91.40;;;;;;5049440;28;22483;-69
2024/01/08 10:29:38;;;;;;;1.55;0.73;;;8.40;91.60;;;;;;5058544;28;20131;-70
2024/01/08 10:32:10;;;;;;;2.55;0.90;;;8.50;91.70;;;;;;5052875;28;20596;-69
2024/01/08 10:34:36;;;;;;;2.53;1.08;;;8.40;91.70;;;;;;5053173;28;20041;-68
2024/01/08 10:37:02;;;;;;;1.33;0.63;;;8.50;92.00;;;;;;5060397;28;20039;-68
2024/01/08 10:39:30;;;;;;;2.25;0.88;;;8.40;91.50;;;;;;5058960;28;20040;-68
2024/01/08 10:42:00;;;;;;;2.33;1.00;;;8.50;91.80;;;;;;5056929;28;20126;-69
2024/01/08 10:44:26;;;;;;;2.78;0.70;;;8.50;91.20;;;;;;5061491;28;20380;-69
2024/01/08 10:46:57;;;;;;;2.53;0.82;;;8.50;91.00;;;;;;5064179;28;20075;-68
2024/01/08 10:49:33;;;;;;;1.52;0.68;;;8.60;91.30;;;;;;5068201;28;20387;-68
2024/01/08 10:52:09;;;;;;;0.50;0.32;;;8.60;91.00;;;;;;5057652;28;20084;-69
2024/01/08 10:54:53;;;;;;;1.40;0.52;;;8.60;91.00;;;;;;5060597;28;20043;-69
2024/01/08 10:57:23;;;;;;;0.93;0.60;;;8.70;91.20;;;;;;5059766;28;20108;-69
2024/01/08 10:59:51;;;;;;;2.17;0.63;;;8.60;90.90;;;;;;5056939;28;20032;-68
2024/01/08 11:02:17;;;;;;;1.63;0.65;;;8.60;90.60;;;;;;5054344;28;20106;-69
2024/01/08 11:04:43;;;;;;;1.48;0.60;;;8.60;90.60;;;;;;5054828;28;20636;-68
2024/01/08 11:07:13;;;;;;;2.30;0.60;;;8.80;90.90;;;;;;5053742;28;20032;-69
2024/01/08 11:09:39;;;;;;;1.27;0.63;;;8.90;91.00;;;;;;5052718;28;20036;-69
2024/01/08 11:12:10;;;;;;;1.58;0.60;;;9.00;91.40;;;;;;5056428;28;20087;-69
2024/01/08 11:14:38;;;;;;;1.55;0.57;;;9.00;92.00;;;;;;5055056;28;20033;-69
2024/01/08 11:17:08;;;;;;;1.92;0.80;;;9.00;91.00;;;;;;5051381;28;20045;-70
2024/01/08 11:19:40;;;;;;;1.98;1.33;;;8.90;90.40;;;;;;5054389;28;20053;-71
2024/01/08 11:22:14;;;;;;;4.05;1.27;;;8.80;91.40;;;;;;5053129;28;20048;-71
2024/01/08 11:24:41;;;;;;;;;;;9.00;91.40;;;;;;5052681;28;21008;-69
2024/01/08 11:27:07;;;;;;;3.05;1.08;;;9.10;91.20;;;;;;5054248;28;20403;-69
2024/01/08 11:29:34;;;;;;;1.13;0.50;;;8.80;90.30;;;;;;5053613;28;20081;-69
2024/01/08 11:32:30;;;;;;;1.70;0.60;;;8.70;90.20;;;;;;5052040;28;20072;-70
2024/01/08 11:34:59;;;;;;;1.27;0.50;;;8.70;90.90;;;;;;5053881;28;20040;-69
2024/01/08 11:37:31;;;;;;;0.88;0.50;;;8.80;90.60;;;;;;5055956;28;20115;-70
2024/01/08 11:40:02;;;;;;;2.15;0.73;;;9.00;91.10;;;;;;5055083;28;20074;-69
2024/01/08 11:42:29;;;;;;;1.33;0.68;;;8.70;90.20;;;;;;5056453;28;20032;-69
2024/01/08 11:44:58;;;;;;;1.85;0.75;;;8.70;90.50;;;;;;5056588;28;20142;-70
2024/01/08 11:47:23;;;;;;;1.70;0.80;;;8.80;91.50;;;;;;5060081;28;20024;-69
2024/01/08 11:49:51;;;;;;;2.20;0.88;;;9.10;90.80;;;;;;5060066;28;20085;-70
2024/01/08 11:52:17;;;;;;;1.42;0.73;;;9.20;90.80;;;;;;5057848;28;20532;-70
2024/01/08 11:54:48;;;;;;;2.90;0.77;;;8.80;90.50;;;;;;5066262;28;21162;-69
2024/01/08 11:57:17;;;;;;;2.17;0.88;;;8.90;90.60;;;;;;5062791;28;20033;-69
2024/01/08 11:59:43;;;;;;;2.03;0.80;;;8.90;90.40;;;;;;5056088;28;20186;-69
2024/01/08 12:02:17;;;;;;;3.00;1.00;;;9.10;90.60;;;;;;5056063;28;20464;-71
2024/01/08 12:04:56;;;;;;;1.58;0.70;;;9.10;90.80;;;;;;5051182;28;20059;-70
2024/01/08 12:07:24;;;;;;;2.35;0.82;;;9.10;90.90;;;;;;5051785;28;20485;-70
2024/01/08 12:09:50;;;;;;;1.67;0.55;;;9.10;90.20;;;;;;5057232;28;20027;-70
2024/01/08 12:12:19;;;;;;;2.88;0.55;;;9.10;90.40;;;;;;5055672;28;20529;-69
2024/01/08 12:14:46;;;;;;;1.38;0.75;;;9.10;90.50;;;;;;5055274;28;20591;-69
2024/01/08 12:17:14;;;;;;;1.15;0.50;;;9.20;90.30;;;;;;5055013;28;20039;-69
2024/01/08 12:20:03;;;;;;;2.67;0.85;;;9.30;90.40;;;;;;5059922;28;20433;-70
2024/01/08 12:22:29;;;;;;;1.42;0.60;;;9.10;90.20;;;;;;5057508;28;20097;-69
2024/01/08 12:24:58;;;;;;;1.23;0.88;;;8.90;90.20;;;;;;5053816;28;20754;-70
2024/01/08 12:27:31;;;;;;;1.77;0.70;;;8.90;89.90;;;;;;5054618;28;20058;-70
2024/01/08 12:29:57;;;;;;;1.95;0.70;;;9.00;90.20;;;;;;5054674;28;20032;-70
2024/01/08 12:32:25;;;;;;;0.93;0.47;;;9.10;89.90;;;;;;5056025;28;20024;-70
2024/01/08 12:34:51;;;;;;;4.75;0.63;;;9.20;89.90;;;;;;5059228;28;20036;-71
2024/01/08 12:37:18;;;;;;;1.52;0.60;;;9.10;90.00;;;;;;5056270;28;20060;-70
2024/01/08 12:39:44;;;;;;;1.95;0.80;;;9.10;89.30;;;;;;5054467;28;20543;-69
2024/01/08 12:42:18;;;;;;;2.22;0.80;;;9.20;90.20;;;;;;5055434;28;20523;-69
2024/01/08 12:44:47;;;;;;;1.23;0.60;;;9.10;90.00;;;;;;5054633;28;20103;-71
2024/01/08 12:47:13;;;;;;;1.67;0.65;;;9.10;89.90;;;;;;5054553;28;20310;-71
2024/01/08 12:49:38;;;;;;;2.80;0.85;;;9.10;89.10;;;;;;5055652;28;20111;-72
2024/01/08 12:52:05;;;;;;;1.60;0.70;;;9.00;88.60;;;;;;5054010;28;20109;-71
2024/01/08 12:54:32;;;;;;;1.95;0.68;;;9.00;90.00;;;;;;5052589;28;20032;-72
2024/01/08 12:56:58;;;;;;;1.20;0.63;;;8.90;90.10;;;;;;5051380;28;20033;-72